createdAt,value
2022-10-11T00:00:13.566Z,91.06
2022-10-11T00:02:42.899Z,91.68
2022-10-11T00:05:12.690Z,92.17
2022-10-11T00:07:41.067Z,91.93
2022-10-11T00:10:10.544Z,91.66
2022-10-11T00:12:39.358Z,90.30
2022-10-11T00:15:08.845Z,90.54
2022-10-11T00:17:37.505Z,90.59
2022-10-11T00:20:06.106Z,91.61
2022-10-11T00:22:37.786Z,91.90
2022-10-11T00:25:10.319Z,91.94
2022-10-11T00:27:40.481Z,91.97
2022-10-11T00:30:10.803Z,91.55
2022-10-11T00:32:42.157Z,92.29
2022-10-11T00:35:10.755Z,92.03
2022-10-11T00:37:39.755Z,92.63
2022-10-11T00:40:14.888Z,92.57
2022-10-11T00:42:47.164Z,93.00
2022-10-11T00:45:26.552Z,92.24
2022-10-11T00:48:02.537Z,91.71
2022-10-11T00:50:34.683Z,92.41
2022-10-11T00:53:26.513Z,93.45
2022-10-11T00:56:04.730Z,93.03
2022-10-11T00:58:38.580Z,92.60
2022-10-11T01:01:31.353Z,92.76
2022-10-11T01:04:01.712Z,92.68
2022-10-11T01:06:30.108Z,93.85
2022-10-11T01:09:00.302Z,94.19
2022-10-11T01:11:31.693Z,94.43
2022-10-11T01:14:36.308Z,94.09
2022-10-11T01:17:13.574Z,94.11
2022-10-11T01:20:15.782Z,94.57
2022-10-11T01:22:55.910Z,94.20
2022-10-11T01:25:55.779Z,94.61
2022-10-11T01:28:49.514Z,93.84
2022-10-11T01:32:04.506Z,93.24
2022-10-11T01:34:40.446Z,93.41
2022-10-11T01:37:14.741Z,93.44
2022-10-11T01:40:10.070Z,93.57
2022-10-11T01:42:41.111Z,93.98
2022-10-11T01:45:14.345Z,93.63
2022-10-11T01:47:43.013Z,94.02
2022-10-11T01:50:44.748Z,93.63
2022-10-11T01:53:19.962Z,94.33
2022-10-11T01:56:17.394Z,93.81
2022-10-11T01:59:24.150Z,94.28
2022-10-11T02:02:04.994Z,93.66
2022-10-11T02:04:44.295Z,94.17
2022-10-11T02:07:19.597Z,93.49
2022-10-11T02:09:58.917Z,93.36
2022-10-11T02:12:37.844Z,92.75
2022-10-11T02:15:31.326Z,93.44
2022-10-11T02:18:07.040Z,92.97
2022-10-11T02:21:06.057Z,93.48
2022-10-11T02:24:27.389Z,92.95
2022-10-11T02:27:39.381Z,92.99
2022-10-11T02:30:30.759Z,94.22
2022-10-11T02:33:46.300Z,94.47
2022-10-11T02:36:49.479Z,93.43
2022-10-11T02:40:00.769Z,94.62
2022-10-11T02:43:03.617Z,94.25
2022-10-11T02:46:16.610Z,94.22
2022-10-11T02:49:08.074Z,94.77
2022-10-11T02:52:37.144Z,95.38
2022-10-11T02:55:36.562Z,96.12
2022-10-11T02:58:26.726Z,96.16
2022-10-11T03:01:15.369Z,95.35
2022-10-11T03:04:05.365Z,96.07
2022-10-11T03:06:34.202Z,96.25
2022-10-11T03:09:39.948Z,95.70
2022-10-11T03:12:13.278Z,96.23
2022-10-11T03:15:22.802Z,95.94
2022-10-11T03:17:52.832Z,96.44
2022-10-11T03:20:22.521Z,94.93
2022-10-11T03:22:51.150Z,95.14
2022-10-11T03:25:39.978Z,95.47
2022-10-11T03:28:29.747Z,96.48
2022-10-11T03:30:58.823Z,96.94
2022-10-11T03:33:27.506Z,96.87
2022-10-11T03:35:55.734Z,95.76
2022-10-11T03:38:23.967Z,97.19
2022-10-11T03:40:54.057Z,97.36
2022-10-11T03:43:22.213Z,97.90
2022-10-11T03:45:50.663Z,98.63
2022-10-11T03:48:20.604Z,98.33
2022-10-11T03:50:52.840Z,99.60
2022-10-11T03:53:23.782Z,99.41
2022-10-11T03:55:57.193Z,99.78
2022-10-11T03:58:27.234Z,100.00
2022-10-11T04:00:56.278Z,100.00
2022-10-11T04:03:25.731Z,99.53
2022-10-11T04:05:53.969Z,98.04
2022-10-11T04:08:22.455Z,97.85
2022-10-11T04:10:53.949Z,97.44
2022-10-11T04:13:23.415Z,97.54
2022-10-11T04:15:53.144Z,97.50
2022-10-11T04:18:22.312Z,97.17
2022-10-11T04:20:52.431Z,95.91
2022-10-11T04:23:22.072Z,95.41
2022-10-11T04:26:11.469Z,96.28
2022-10-11T04:29:01.027Z,95.87
2022-10-11T04:31:33.607Z,96.25
2022-10-11T04:34:03.250Z,97.39
2022-10-11T04:36:49.752Z,98.04
2022-10-11T04:39:18.400Z,98.41
2022-10-11T04:41:46.812Z,98.56
2022-10-11T04:44:14.853Z,99.60
2022-10-11T04:46:43.245Z,99.36
2022-10-11T04:49:11.383Z,99.09
2022-10-11T04:51:39.704Z,99.09
2022-10-11T04:54:08.032Z,99.56
2022-10-11T04:56:36.444Z,99.52
2022-10-11T04:59:04.462Z,99.55
2022-10-11T05:01:33.374Z,99.97
2022-10-11T05:04:01.923Z,99.45
2022-10-11T05:06:30.095Z,99.75
2022-10-11T05:08:58.514Z,100.00
2022-10-11T05:11:26.718Z,100.00
2022-10-11T05:13:56.540Z,100.00
2022-10-11T05:16:25.121Z,100.00
2022-10-11T05:18:53.400Z,100.00
2022-10-11T05:21:24.657Z,100.00
2022-10-11T05:23:57.710Z,100.00
2022-10-11T05:26:27.780Z,100.00
2022-10-11T05:28:56.559Z,100.00
2022-10-11T05:31:25.113Z,100.00
2022-10-11T05:33:53.352Z,100.00
2022-10-11T05:36:22.116Z,100.00
2022-10-11T05:38:50.524Z,100.00
2022-10-11T05:41:18.773Z,100.00
2022-10-11T05:43:47.129Z,100.00
2022-10-11T05:46:15.385Z,100.00
2022-10-11T05:48:43.565Z,100.00
2022-10-11T05:51:12.649Z,100.00
2022-10-11T05:53:40.828Z,100.00
2022-10-11T05:56:21.440Z,100.00
2022-10-11T05:58:50.883Z,100.00
2022-10-11T06:01:24.288Z,100.00
2022-10-11T06:03:53.440Z,100.00
2022-10-11T06:06:22.221Z,100.00
2022-10-11T06:08:50.369Z,100.00
2022-10-11T06:11:25.492Z,100.00
2022-10-11T06:13:55.484Z,100.00
2022-10-11T06:16:24.620Z,99.71
2022-10-11T06:18:57.461Z,98.55
2022-10-11T06:21:25.878Z,98.31
2022-10-11T06:23:59.887Z,98.55
2022-10-11T06:26:30.049Z,97.05
2022-10-11T06:28:58.727Z,97.34
2022-10-11T06:31:27.054Z,97.41
2022-10-11T06:33:55.580Z,97.26
2022-10-11T06:36:23.624Z,97.09
2022-10-11T06:38:53.060Z,96.78
2022-10-11T06:41:24.573Z,98.51
2022-10-11T06:43:52.883Z,96.97
2022-10-11T06:46:23.082Z,95.69
2022-10-11T06:48:52.161Z,95.51
2022-10-11T06:51:22.238Z,96.01
2022-10-11T06:53:52.257Z,96.56
2022-10-11T06:56:21.515Z,94.03
2022-10-11T06:58:51.252Z,93.31
2022-10-11T07:01:21.591Z,91.94
2022-10-11T07:03:52.114Z,92.41
2022-10-11T07:06:30.450Z,92.12
2022-10-11T07:09:00.711Z,92.31
2022-10-11T07:11:29.311Z,91.38
2022-10-11T07:14:00.258Z,92.05
2022-10-11T07:16:29.171Z,91.02
2022-10-11T07:19:00.913Z,88.57
2022-10-11T07:21:32.125Z,88.80
2022-10-11T07:24:01.659Z,88.05
2022-10-11T07:26:35.249Z,89.90
2022-10-11T07:29:05.187Z,87.97
2022-10-11T07:31:33.329Z,87.52
2022-10-11T07:34:01.567Z,86.33
2022-10-11T07:36:29.882Z,84.21
2022-10-11T07:38:59.394Z,83.44
2022-10-11T07:41:27.485Z,84.65
2022-10-11T07:43:55.773Z,81.29
2022-10-11T07:46:24.151Z,82.78
2022-10-11T07:48:52.301Z,80.61
2022-10-11T07:51:23.033Z,79.43
2022-10-11T07:53:55.738Z,79.57
2022-10-11T07:56:28.419Z,80.47
2022-10-11T07:59:01.615Z,77.90
2022-10-11T08:01:31.112Z,69.80
2022-10-11T08:04:00.884Z,74.37
2022-10-11T08:06:32.519Z,70.94
2022-10-11T08:09:01.606Z,67.65
2022-10-11T08:11:32.604Z,68.61
2022-10-11T08:14:03.680Z,67.40
2022-10-11T08:16:32.070Z,68.14
2022-10-11T08:19:01.224Z,69.89
2022-10-11T08:21:31.072Z,67.56
2022-10-11T08:24:01.335Z,69.68
2022-10-11T08:26:30.769Z,69.56
2022-10-11T08:29:02.374Z,67.40
2022-10-11T08:31:32.741Z,66.32
2022-10-11T08:34:01.302Z,65.15
2022-10-11T08:36:31.154Z,65.18
2022-10-11T08:38:59.563Z,62.72
2022-10-11T08:41:42.270Z,64.21
2022-10-11T08:44:19.724Z,60.48
2022-10-11T08:47:00.303Z,61.40
2022-10-11T08:49:32.706Z,63.22
2022-10-11T08:52:06.075Z,58.92
2022-10-11T08:54:58.480Z,61.03
2022-10-11T08:57:29.655Z,63.36
2022-10-11T09:00:15.016Z,60.21
2022-10-11T09:03:13.886Z,61.49
2022-10-11T09:06:23.169Z,63.32
2022-10-11T09:09:28.976Z,61.70
2022-10-11T09:12:03.333Z,63.10
2022-10-11T09:14:52.833Z,61.10
2022-10-11T09:17:21.443Z,60.35
2022-10-11T09:20:27.562Z,61.01
2022-10-11T09:23:16.923Z,61.85
2022-10-11T09:25:54.604Z,63.14
2022-10-11T09:28:45.000Z,65.49
2022-10-11T09:31:13.305Z,62.80
2022-10-11T09:33:46.648Z,63.99
2022-10-11T09:36:32.963Z,64.83
2022-10-11T09:39:18.599Z,66.30
2022-10-11T09:42:02.383Z,66.20
2022-10-11T09:44:37.139Z,65.11
2022-10-11T09:47:06.714Z,65.00
2022-10-11T09:49:42.568Z,65.20
2022-10-11T09:52:19.781Z,64.89
2022-10-11T09:55:00.709Z,65.84
2022-10-11T09:57:31.563Z,66.32
2022-10-11T10:00:02.341Z,67.37
2022-10-11T10:02:49.013Z,65.85
2022-10-11T10:05:25.172Z,66.51
2022-10-11T10:08:09.230Z,65.43
2022-10-11T10:10:46.175Z,66.13
2022-10-11T10:13:20.163Z,65.27
2022-10-11T10:15:53.726Z,65.66
2022-10-11T10:18:26.782Z,68.66
2022-10-11T10:20:59.541Z,67.83
2022-10-11T10:23:31.673Z,67.29
2022-10-11T10:26:12.423Z,65.79
2022-10-11T10:29:16.261Z,67.54
2022-10-11T10:34:53.148Z,66.47
2022-10-11T10:37:29.635Z,66.79
2022-10-11T10:40:14.370Z,67.04
2022-10-11T10:42:42.784Z,67.78
2022-10-11T10:45:21.398Z,69.03
2022-10-11T10:47:59.658Z,67.40
2022-10-11T10:50:51.105Z,66.74
2022-10-11T10:53:42.130Z,64.77
2022-10-11T10:56:25.047Z,67.71
2022-10-11T10:59:30.701Z,66.78
2022-10-11T11:02:28.134Z,66.93
2022-10-11T11:05:19.081Z,67.41
2022-10-11T11:08:30.660Z,67.58
2022-10-11T11:11:43.446Z,66.45
2022-10-11T11:14:14.696Z,64.59
2022-10-11T11:17:09.359Z,62.35
2022-10-11T11:19:56.249Z,62.86
2022-10-11T11:22:48.862Z,63.04
2022-10-11T11:25:27.618Z,63.16
2022-10-11T11:28:35.262Z,61.03
2022-10-11T11:31:40.915Z,63.68
2022-10-11T11:34:24.410Z,62.23
2022-10-11T11:36:58.030Z,62.03
2022-10-11T11:39:33.026Z,62.75
2022-10-11T11:42:18.322Z,62.92
2022-10-11T11:44:49.465Z,63.64
2022-10-11T11:47:38.426Z,62.18
2022-10-11T11:50:15.269Z,64.10
2022-10-11T11:52:47.934Z,66.99
2022-10-11T11:55:49.485Z,65.13
2022-10-11T11:59:12.053Z,65.28
2022-10-11T12:01:46.030Z,62.82
2022-10-11T12:04:49.740Z,63.65
2022-10-11T12:07:20.994Z,63.16
2022-10-11T12:09:54.397Z,62.90
2022-10-11T12:12:37.462Z,64.41
2022-10-11T12:15:09.048Z,64.31
2022-10-11T12:18:03.381Z,64.63
2022-10-11T12:20:38.738Z,65.64
2022-10-11T12:23:31.334Z,63.39
2022-10-11T12:26:17.876Z,63.84
2022-10-11T12:28:58.454Z,64.47
2022-10-11T12:31:33.705Z,65.23
2022-10-11T12:34:01.777Z,65.13
2022-10-11T12:36:45.087Z,64.21
2022-10-11T12:39:19.459Z,65.84
2022-10-11T12:41:47.824Z,65.83
2022-10-11T12:44:18.382Z,65.78
2022-10-11T12:46:55.021Z,65.66
2022-10-11T12:49:38.337Z,66.22
2022-10-11T12:52:37.036Z,66.30
2022-10-11T12:55:35.089Z,65.99
2022-10-11T12:58:21.417Z,66.31
2022-10-11T13:00:52.540Z,65.56
2022-10-11T13:03:34.386Z,64.14
2022-10-11T13:06:25.098Z,64.60
2022-10-11T13:09:15.074Z,66.05
2022-10-11T13:11:54.368Z,65.09
2022-10-11T13:14:25.359Z,66.69
2022-10-11T13:17:02.826Z,66.91
2022-10-11T13:19:33.607Z,65.95
2022-10-11T13:22:15.854Z,65.23
2022-10-11T13:24:44.380Z,65.04
2022-10-11T13:27:23.247Z,65.48
2022-10-11T13:29:55.198Z,65.33
2022-10-11T13:32:26.343Z,65.34
2022-10-11T13:35:07.803Z,65.79
2022-10-11T13:37:44.249Z,65.58
2022-10-11T13:40:23.491Z,66.92
2022-10-11T13:42:53.111Z,65.17
2022-10-11T13:45:24.730Z,65.98
2022-10-11T13:47:55.059Z,66.54
2022-10-11T13:50:31.840Z,66.61
2022-10-11T13:53:22.229Z,67.43
2022-10-11T13:55:55.605Z,67.60
2022-10-11T13:58:30.067Z,67.66
2022-10-11T14:01:06.056Z,69.49
2022-10-11T14:03:44.530Z,70.50
2022-10-11T14:06:12.900Z,69.69
2022-10-11T14:08:55.214Z,71.17
2022-10-11T14:11:41.696Z,71.96
2022-10-11T14:14:28.973Z,71.48
2022-10-11T14:17:12.159Z,71.15
2022-10-11T14:19:41.528Z,72.30
2022-10-11T14:22:17.467Z,71.62
2022-10-11T14:24:48.990Z,72.32
2022-10-11T14:27:22.959Z,71.66
2022-10-11T14:30:12.624Z,71.87
2022-10-11T14:32:42.410Z,71.18
2022-10-11T14:35:23.509Z,72.23
2022-10-11T14:37:52.900Z,71.38
2022-10-11T14:40:27.311Z,73.40
2022-10-11T14:42:55.901Z,73.84
2022-10-11T14:45:24.551Z,74.78
2022-10-11T14:47:52.754Z,76.66
2022-10-11T14:50:48.739Z,77.60
2022-10-11T14:53:17.317Z,78.01
2022-10-11T14:55:45.885Z,78.03
2022-10-11T14:58:15.823Z,76.79
2022-10-11T15:00:45.653Z,78.34
2022-10-11T15:03:13.909Z,78.24
2022-10-11T15:05:42.049Z,78.61
2022-10-11T15:08:12.177Z,78.79
2022-10-11T15:10:41.358Z,77.43
2022-10-11T15:13:10.097Z,78.43
2022-10-11T15:15:41.469Z,78.81
2022-10-11T15:18:13.472Z,79.67
2022-10-11T15:20:44.825Z,80.42
2022-10-11T15:23:12.893Z,81.55
2022-10-11T15:25:42.301Z,82.56
2022-10-11T15:28:27.371Z,83.29
2022-10-11T15:30:56.338Z,84.17
2022-10-11T15:33:25.376Z,85.38
2022-10-11T15:35:53.434Z,85.48
2022-10-11T15:38:24.778Z,85.95
2022-10-11T15:40:53.824Z,85.67
2022-10-11T15:43:24.915Z,85.01
2022-10-11T15:45:54.988Z,84.88
2022-10-11T15:48:26.389Z,85.04
2022-10-11T15:50:55.597Z,85.57
2022-10-11T15:53:31.032Z,86.16
2022-10-11T15:56:03.339Z,86.38
2022-10-11T15:58:37.347Z,86.79
2022-10-11T16:01:08.490Z,86.53
2022-10-11T16:03:37.817Z,85.71
2022-10-11T16:06:06.351Z,85.05
2022-10-11T16:08:35.755Z,85.23
2022-10-11T16:11:05.972Z,84.07
2022-10-11T16:13:35.035Z,84.54
2022-10-11T16:16:05.860Z,84.20
2022-10-11T16:18:36.154Z,84.83
2022-10-11T16:21:10.395Z,84.76
2022-10-11T16:23:39.310Z,84.73
2022-10-11T16:26:11.339Z,83.85
2022-10-11T16:28:42.028Z,83.79
2022-10-11T16:31:14.053Z,84.69
2022-10-11T16:33:48.321Z,83.43
2022-10-11T16:36:40.423Z,82.31
2022-10-11T16:39:18.305Z,82.74
2022-10-11T16:41:47.991Z,79.31
2022-10-11T16:44:18.319Z,80.03
2022-10-11T16:46:48.523Z,75.75
2022-10-11T16:49:19.207Z,76.29
2022-10-11T16:51:47.663Z,76.88
2022-10-11T16:54:20.434Z,77.77
2022-10-11T16:56:50.231Z,77.99
2022-10-11T16:59:19.398Z,78.75
2022-10-11T17:01:47.849Z,81.08
2022-10-11T17:04:16.457Z,79.60
2022-10-11T17:06:44.942Z,80.31
2022-10-11T17:09:13.690Z,80.34
2022-10-11T17:11:42.727Z,80.62
2022-10-11T17:14:12.605Z,81.00
2022-10-11T17:16:40.716Z,81.00
2022-10-11T17:19:11.708Z,82.07
2022-10-11T17:21:40.485Z,81.74
2022-10-11T17:24:09.217Z,82.30
2022-10-11T17:26:37.470Z,81.60
2022-10-11T17:29:06.012Z,81.39
2022-10-11T17:31:36.600Z,81.09
2022-10-11T17:34:04.863Z,81.03
2022-10-11T17:36:36.225Z,80.32
2022-10-11T17:39:07.585Z,80.47
2022-10-11T17:41:36.166Z,80.37
2022-10-11T17:44:04.591Z,79.98
2022-10-11T17:46:32.934Z,80.45
2022-10-11T17:49:04.800Z,80.34
2022-10-11T17:51:35.912Z,80.78
2022-10-11T17:54:05.142Z,80.46
2022-10-11T17:56:37.644Z,80.71
2022-10-11T17:59:06.880Z,80.75
2022-10-11T18:01:35.807Z,80.62
2022-10-11T18:04:06.119Z,81.07
2022-10-11T18:06:39.478Z,82.46
2022-10-11T18:09:08.040Z,83.07
2022-10-11T18:11:36.282Z,82.95
2022-10-11T18:14:05.365Z,83.40
2022-10-11T18:16:35.080Z,84.30
2022-10-11T18:19:06.960Z,83.19
2022-10-11T18:21:35.347Z,83.67
2022-10-11T18:24:08.052Z,84.32
2022-10-11T18:26:37.344Z,84.38
2022-10-11T18:29:05.877Z,84.78
2022-10-11T18:31:35.168Z,85.06
2022-10-11T18:34:06.294Z,85.03
2022-10-11T18:36:34.581Z,85.61
2022-10-11T18:39:05.934Z,85.82
2022-10-11T18:41:35.655Z,86.56
2022-10-11T18:44:06.425Z,86.69
2022-10-11T18:46:35.297Z,86.31
2022-10-11T18:49:04.125Z,85.84
2022-10-11T18:51:34.841Z,85.31
2022-10-11T18:54:06.339Z,86.53
2022-10-11T18:56:37.234Z,85.66
2022-10-11T18:59:06.435Z,86.06
2022-10-11T19:01:40.561Z,87.70
2022-10-11T19:04:10.495Z,86.31
2022-10-11T19:06:43.786Z,86.18
2022-10-11T19:09:18.811Z,85.16
2022-10-11T19:11:47.571Z,84.88
2022-10-11T19:14:17.816Z,85.41
2022-10-11T19:16:49.694Z,86.10
2022-10-11T19:19:20.910Z,87.42
2022-10-11T19:21:49.556Z,87.18
2022-10-11T19:24:20.959Z,87.15
2022-10-11T19:26:50.075Z,87.31
2022-10-11T19:29:20.357Z,87.92
2022-10-11T19:31:54.682Z,88.30
2022-10-11T19:34:28.356Z,88.91
2022-10-11T19:36:57.153Z,88.87
2022-10-11T19:39:25.900Z,89.25
2022-10-11T19:41:54.262Z,89.12
2022-10-11T19:44:22.243Z,89.88
2022-10-11T19:46:52.043Z,90.54
2022-10-11T19:49:25.257Z,90.52
2022-10-11T19:51:55.336Z,90.24
2022-10-11T19:54:23.989Z,90.37
2022-10-11T19:56:52.770Z,90.92
2022-10-11T19:59:22.435Z,91.67
2022-10-11T20:01:53.041Z,92.32
2022-10-11T20:04:50.562Z,92.03
2022-10-11T20:07:11.295Z,92.79
2022-10-11T20:09:39.849Z,92.44
2022-10-11T20:12:08.187Z,92.45
2022-10-11T20:14:36.307Z,92.92
2022-10-11T20:17:04.768Z,92.86
2022-10-11T20:19:32.836Z,92.54
2022-10-11T20:22:01.331Z,93.24
2022-10-11T20:24:33.651Z,93.78
2022-10-11T20:27:06.928Z,94.67
2022-10-11T20:29:39.669Z,94.08
2022-10-11T20:32:07.716Z,93.79
2022-10-11T20:34:39.418Z,94.04
2022-10-11T20:37:07.488Z,94.05
2022-10-11T20:39:35.891Z,93.93
2022-10-11T20:42:04.229Z,94.65
2022-10-11T20:44:32.752Z,94.29
2022-10-11T20:47:04.065Z,94.24
2022-10-11T20:49:32.479Z,96.25
2022-10-11T20:52:00.914Z,96.98
2022-10-11T20:54:29.825Z,96.66
2022-10-11T20:56:58.003Z,97.04
2022-10-11T20:59:26.958Z,98.29
2022-10-11T21:01:55.421Z,97.60
2022-10-11T21:04:23.472Z,97.70
2022-10-11T21:06:52.204Z,97.46
2022-10-11T21:09:20.772Z,97.21
2022-10-11T21:11:48.858Z,98.56
2022-10-11T21:14:17.668Z,98.45
2022-10-11T21:16:45.795Z,100.00
2022-10-11T21:19:15.324Z,99.29
2022-10-11T21:21:52.473Z,98.55
2022-10-11T21:24:21.496Z,98.51
2022-10-11T21:26:50.284Z,97.85
2022-10-11T21:29:18.515Z,99.43
2022-10-11T21:31:46.926Z,100.00
2022-10-11T21:34:15.829Z,100.00
2022-10-11T21:36:44.009Z,100.00
2022-10-11T21:39:12.097Z,100.00
2022-10-11T21:41:42.380Z,100.00
2022-10-11T21:44:10.521Z,100.00
2022-10-11T21:49:27.753Z,100.00
2022-10-11T21:51:56.168Z,100.00
2022-10-11T21:54:24.185Z,100.00
2022-10-11T21:56:52.692Z,100.00
2022-10-11T21:59:20.941Z,100.00
2022-10-11T22:01:49.233Z,100.00
2022-10-11T22:04:17.876Z,100.00
2022-10-11T22:06:46.102Z,100.00
2022-10-11T22:09:14.424Z,100.00
2022-10-11T22:11:42.947Z,100.00
2022-10-11T22:14:11.143Z,100.00
2022-10-11T22:16:39.343Z,100.00
2022-10-11T22:19:07.700Z,100.00
2022-10-11T22:21:36.007Z,100.00
2022-10-11T22:24:04.270Z,100.00
2022-10-11T22:26:35.074Z,100.00
2022-10-11T22:29:03.264Z,100.00
2022-10-11T22:31:31.794Z,100.00
2022-10-11T22:34:01.237Z,100.00
2022-10-11T22:36:33.825Z,100.00
2022-10-11T22:39:08.049Z,100.00
2022-10-11T22:41:36.932Z,100.00
2022-10-11T22:44:05.640Z,100.00
2022-10-11T22:46:34.280Z,100.00
2022-10-11T22:49:02.407Z,100.00
2022-10-11T22:51:31.049Z,100.00
2022-10-11T22:53:59.271Z,100.00
2022-10-11T22:56:27.684Z,100.00
2022-10-11T22:58:56.123Z,100.00
2022-10-11T23:01:24.307Z,100.00
2022-10-11T23:03:52.885Z,100.00
2022-10-11T23:06:21.267Z,100.00
2022-10-11T23:08:49.726Z,100.00
2022-10-11T23:11:18.177Z,100.00
2022-10-11T23:13:46.477Z,100.00
2022-10-11T23:16:14.672Z,100.00
2022-10-11T23:18:42.855Z,100.00
2022-10-11T23:21:11.294Z,100.00
2022-10-11T23:23:40.047Z,100.00
2022-10-11T23:26:13.430Z,100.00
2022-10-11T23:28:43.051Z,100.00
2022-10-11T23:31:16.814Z,100.00
2022-10-11T23:33:46.961Z,100.00
2022-10-11T23:36:20.757Z,100.00
2022-10-11T23:38:54.986Z,100.00
2022-10-11T23:41:25.205Z,100.00
2022-10-11T23:43:53.976Z,100.00
2022-10-11T23:46:22.230Z,100.00
2022-10-11T23:48:50.442Z,100.00
2022-10-11T23:51:18.848Z,100.00
2022-10-11T23:53:47.363Z,100.00
2022-10-11T23:56:15.531Z,100.00
2022-10-11T23:58:43.872Z,100.00
